createdAt,value
2023-06-07T00:01:14.554Z,16.30
2023-06-07T00:06:17.780Z,16.24
2023-06-07T00:11:22.958Z,16.15
2023-06-07T00:16:25.834Z,16.08
2023-06-07T00:21:29.356Z,16.02
2023-06-07T00:26:32.432Z,15.96
2023-06-07T00:31:35.304Z,15.89
2023-06-07T00:36:38.220Z,15.80
2023-06-07T00:41:41.115Z,15.70
2023-06-07T00:46:44.775Z,15.61
2023-06-07T00:51:47.839Z,15.49
2023-06-07T00:56:51.640Z,15.40
2023-06-07T01:01:56.944Z,15.29
2023-06-07T01:07:02.890Z,15.18
2023-06-07T01:12:07.236Z,15.08
2023-06-07T01:17:10.244Z,14.97
2023-06-07T01:22:15.311Z,14.87
2023-06-07T01:27:18.476Z,14.78
2023-06-07T01:32:22.815Z,14.70
2023-06-07T01:37:26.481Z,14.61
2023-06-07T01:42:29.946Z,14.52
2023-06-07T01:47:33.628Z,14.42
2023-06-07T01:52:36.652Z,14.33
2023-06-07T01:57:51.612Z,14.24
2023-06-07T02:03:07.414Z,14.17
2023-06-07T02:08:20.575Z,14.10
2023-06-07T02:13:26.592Z,14.05
2023-06-07T02:18:29.371Z,14.02
2023-06-07T02:23:32.225Z,13.99
2023-06-07T02:28:35.067Z,13.96
2023-06-07T02:33:37.848Z,13.93
2023-06-07T02:38:40.778Z,13.90
2023-06-07T02:43:45.145Z,13.88
2023-06-07T02:48:47.994Z,13.86
2023-06-07T02:53:50.980Z,13.85
2023-06-07T02:58:53.756Z,13.85
2023-06-07T03:03:58.162Z,13.84
2023-06-07T03:09:00.987Z,13.84
2023-06-07T03:14:03.828Z,13.88
2023-06-07T03:19:07.161Z,13.93
2023-06-07T03:24:10.194Z,13.97
2023-06-07T03:29:13.129Z,14.05
2023-06-07T03:34:16.204Z,14.18
2023-06-07T03:39:19.063Z,14.35
2023-06-07T03:44:21.915Z,14.56
2023-06-07T03:49:24.689Z,14.76
2023-06-07T03:54:27.559Z,14.99
2023-06-07T03:59:33.299Z,15.22
2023-06-07T04:04:36.433Z,16.74
2023-06-07T04:09:41.113Z,20.31
2023-06-07T04:14:43.916Z,23.56
2023-06-07T04:19:51.378Z,26.18
2023-06-07T04:24:54.814Z,28.43
2023-06-07T04:29:59.061Z,30.30
2023-06-07T04:35:01.893Z,31.96
2023-06-07T04:40:05.424Z,33.37
2023-06-07T04:45:11.151Z,34.50
2023-06-07T04:50:14.906Z,35.39
2023-06-07T04:55:18.956Z,36.19
2023-06-07T05:00:22.930Z,36.95
2023-06-07T05:05:26.133Z,37.57
2023-06-07T05:10:29.049Z,38.14
2023-06-07T05:15:32.456Z,38.77
2023-06-07T05:20:35.345Z,39.02
2023-06-07T05:25:40.096Z,36.76
2023-06-07T05:30:42.900Z,33.88
2023-06-07T05:35:47.361Z,31.64
2023-06-07T05:40:50.860Z,29.93
2023-06-07T05:45:53.817Z,28.72
2023-06-07T05:50:58.279Z,27.82
2023-06-07T05:56:01.197Z,27.23
2023-06-07T06:01:06.755Z,26.71
2023-06-07T06:06:17.475Z,26.26
2023-06-07T06:11:21.092Z,25.94
2023-06-07T06:16:24.123Z,25.69
2023-06-07T06:21:27.601Z,25.55
2023-06-07T06:26:34.189Z,25.51
2023-06-07T06:31:37.196Z,25.56
2023-06-07T06:36:59.795Z,25.70
2023-06-07T06:42:12.643Z,25.90
2023-06-07T06:47:16.200Z,27.81
2023-06-07T06:52:19.026Z,31.49
2023-06-07T06:57:26.256Z,34.55
2023-06-07T07:02:32.497Z,36.75
2023-06-07T07:07:41.956Z,38.35
2023-06-07T07:12:44.854Z,39.52
2023-06-07T07:17:49.547Z,40.32
2023-06-07T07:22:53.071Z,41.07
2023-06-07T07:28:04.103Z,41.62
2023-06-07T07:33:07.533Z,41.75
2023-06-07T07:38:10.588Z,42.00
2023-06-07T07:43:16.951Z,42.29
2023-06-07T07:48:19.844Z,42.52
2023-06-07T07:53:22.882Z,42.60
2023-06-07T07:58:34.077Z,42.51
2023-06-07T08:03:37.193Z,42.29
2023-06-07T08:08:41.292Z,41.96
2023-06-07T08:13:45.523Z,41.63
2023-06-07T08:18:56.691Z,41.52
2023-06-07T08:24:00.593Z,41.18
2023-06-07T08:29:05.162Z,40.72
2023-06-07T08:34:10.158Z,40.40
2023-06-07T08:39:13.845Z,39.93
2023-06-07T08:44:16.947Z,39.35
2023-06-07T08:49:23.873Z,38.67
2023-06-07T08:54:29.037Z,37.14
2023-06-07T08:59:32.666Z,35.53
2023-06-07T09:04:36.131Z,34.69
2023-06-07T09:09:45.254Z,34.55
2023-06-07T09:14:48.256Z,34.50
2023-06-07T09:19:53.762Z,34.28
2023-06-07T09:24:56.808Z,34.37
2023-06-07T09:30:07.039Z,33.89
2023-06-07T09:35:15.066Z,32.63
2023-06-07T09:40:19.815Z,32.00
2023-06-07T09:45:26.949Z,31.77
2023-06-07T09:50:31.195Z,31.25
2023-06-07T09:55:35.985Z,30.75
2023-06-07T10:00:43.542Z,30.30
2023-06-07T10:05:47.224Z,30.09
2023-06-07T10:10:53.831Z,29.69
2023-06-07T10:16:00.043Z,29.43
2023-06-07T10:21:27.461Z,29.73
2023-06-07T10:26:36.527Z,30.27
2023-06-07T10:31:53.072Z,30.73
2023-06-07T10:36:59.628Z,31.09
2023-06-07T10:42:02.679Z,31.23
2023-06-07T10:47:23.770Z,31.15
2023-06-07T10:52:28.001Z,30.96
2023-06-07T10:57:39.687Z,30.69
2023-06-07T11:02:45.500Z,30.47
2023-06-07T11:07:52.149Z,30.35
2023-06-07T11:12:56.320Z,29.91
2023-06-07T11:18:05.126Z,29.79
2023-06-07T11:23:30.676Z,29.85
2023-06-07T11:28:40.342Z,30.08
2023-06-07T11:33:45.990Z,30.36
2023-06-07T11:38:53.229Z,30.50
2023-06-07T11:43:57.935Z,30.50
2023-06-07T11:49:13.511Z,30.36
2023-06-07T11:54:16.742Z,30.13
2023-06-07T11:59:22.699Z,29.96
2023-06-07T12:04:26.521Z,29.62
2023-06-07T12:09:30.147Z,29.35
2023-06-07T12:14:35.319Z,28.96
2023-06-07T12:19:38.935Z,28.42
2023-06-07T12:24:42.551Z,28.14
2023-06-07T12:29:45.972Z,27.97
2023-06-07T12:34:50.297Z,27.96
2023-06-07T12:39:53.579Z,28.08
2023-06-07T12:44:56.845Z,28.28
2023-06-07T12:49:59.902Z,28.64
2023-06-07T12:55:03.061Z,28.98
2023-06-07T13:00:07.203Z,29.03
2023-06-07T13:05:14.186Z,28.82
2023-06-07T13:10:17.382Z,28.53
2023-06-07T13:15:20.272Z,28.31
2023-06-07T13:20:25.427Z,28.07
2023-06-07T13:25:28.450Z,27.85
2023-06-07T13:30:32.791Z,27.76
2023-06-07T13:35:37.955Z,27.93
2023-06-07T13:40:43.932Z,28.19
2023-06-07T13:45:46.958Z,28.35
2023-06-07T13:50:52.997Z,28.39
2023-06-07T13:55:56.151Z,28.35
2023-06-07T14:01:03.999Z,28.30
2023-06-07T14:06:07.454Z,28.31
2023-06-07T14:11:10.511Z,28.32
2023-06-07T14:16:13.835Z,28.30
2023-06-07T14:21:16.954Z,28.26
2023-06-07T14:26:20.970Z,28.25
2023-06-07T14:31:24.070Z,28.25
2023-06-07T14:36:26.940Z,28.32
2023-06-07T14:41:29.773Z,28.39
2023-06-07T14:46:32.747Z,28.37
2023-06-07T14:51:36.299Z,28.21
2023-06-07T14:56:39.260Z,28.10
2023-06-07T15:01:42.620Z,27.98
2023-06-07T15:06:46.508Z,27.86
2023-06-07T15:11:50.092Z,27.78
2023-06-07T15:16:54.929Z,27.70
2023-06-07T15:21:59.805Z,27.61
2023-06-07T15:27:02.838Z,27.53
2023-06-07T15:32:06.437Z,27.49
2023-06-07T15:37:10.708Z,27.49
2023-06-07T15:42:15.070Z,27.48
2023-06-07T15:47:18.412Z,27.43
2023-06-07T15:52:21.394Z,27.36
2023-06-07T15:57:24.521Z,27.38
2023-06-07T16:02:27.483Z,27.36
2023-06-07T16:07:30.426Z,27.27
2023-06-07T16:12:33.674Z,27.17
2023-06-07T16:17:39.362Z,27.08
2023-06-07T16:22:44.822Z,26.99
2023-06-07T16:27:47.945Z,26.90
2023-06-07T16:32:50.878Z,26.84
2023-06-07T16:37:54.003Z,26.77
2023-06-07T16:42:56.845Z,26.66
2023-06-07T16:47:59.738Z,26.49
2023-06-07T16:53:03.194Z,26.38
2023-06-07T16:58:07.637Z,26.25
2023-06-07T17:03:10.952Z,26.10
2023-06-07T17:08:14.580Z,25.98
2023-06-07T17:13:17.472Z,25.89
2023-06-07T17:18:22.116Z,25.83
2023-06-07T17:23:25.242Z,25.79
2023-06-07T17:28:30.579Z,25.76
2023-06-07T17:33:33.448Z,25.70
2023-06-07T17:38:36.505Z,25.62
2023-06-07T17:43:39.512Z,25.56
2023-06-07T17:48:42.469Z,25.47
2023-06-07T17:53:45.925Z,25.36
2023-06-07T17:58:48.880Z,25.24
2023-06-07T18:03:57.875Z,25.09
2023-06-07T18:09:01.184Z,24.94
2023-06-07T18:14:04.077Z,24.72
2023-06-07T18:19:07.280Z,24.48
2023-06-07T18:24:12.552Z,24.21
2023-06-07T18:29:17.802Z,24.01
2023-06-07T18:34:20.829Z,23.80
2023-06-07T18:39:24.117Z,23.60
2023-06-07T18:44:27.066Z,23.39
2023-06-07T18:49:30.041Z,23.23
2023-06-07T18:54:33.140Z,23.06
2023-06-07T18:59:36.069Z,22.90
2023-06-07T19:04:48.501Z,22.73
2023-06-07T19:09:56.342Z,22.55
2023-06-07T19:14:59.359Z,22.39
2023-06-07T19:20:02.292Z,22.25
2023-06-07T19:25:06.400Z,22.10
2023-06-07T19:30:10.404Z,21.95
2023-06-07T19:35:13.885Z,21.79
2023-06-07T19:40:18.582Z,21.63
2023-06-07T19:45:22.638Z,21.48
2023-06-07T19:50:25.790Z,21.35
2023-06-07T19:55:28.708Z,21.22
2023-06-07T20:00:31.957Z,21.09
2023-06-07T20:05:35.527Z,20.96
2023-06-07T20:10:38.438Z,20.83
2023-06-07T20:15:41.332Z,20.71
2023-06-07T20:20:44.151Z,20.61
2023-06-07T20:25:47.174Z,20.48
2023-06-07T20:30:50.062Z,20.37
2023-06-07T20:35:53.537Z,20.26
2023-06-07T20:40:56.342Z,20.14
2023-06-07T20:45:59.483Z,20.04
2023-06-07T20:51:02.518Z,19.92
2023-06-07T20:56:05.528Z,19.79
2023-06-07T21:01:09.259Z,19.69
2023-06-07T21:06:13.514Z,19.57
2023-06-07T21:11:16.912Z,19.49
2023-06-07T21:16:19.920Z,19.41
2023-06-07T21:21:23.561Z,19.32
2023-06-07T21:26:27.473Z,19.22
2023-06-07T21:31:30.527Z,19.12
2023-06-07T21:36:33.565Z,19.02
2023-06-07T21:41:36.587Z,18.92
2023-06-07T21:46:39.512Z,18.82
2023-06-07T21:51:42.447Z,18.74
2023-06-07T21:56:45.630Z,18.65
2023-06-07T22:01:48.537Z,18.54
2023-06-07T22:06:51.406Z,18.45
2023-06-07T22:11:55.671Z,18.35
2023-06-07T22:17:01.775Z,18.26
2023-06-07T22:22:04.899Z,18.17
2023-06-07T22:27:10.339Z,18.08
2023-06-07T22:32:15.525Z,18.00
2023-06-07T22:37:22.085Z,17.91
2023-06-07T22:42:24.959Z,17.81
2023-06-07T22:47:31.386Z,17.72
2023-06-07T22:52:36.183Z,17.67
2023-06-07T22:57:39.227Z,17.63
2023-06-07T23:02:42.227Z,17.58
2023-06-07T23:07:45.253Z,17.56
2023-06-07T23:12:48.131Z,17.53
2023-06-07T23:17:54.193Z,17.51
2023-06-07T23:22:57.223Z,17.48
2023-06-07T23:28:00.154Z,17.44
2023-06-07T23:33:04.189Z,17.40
2023-06-07T23:38:07.205Z,17.34
2023-06-07T23:43:10.098Z,17.25
2023-06-07T23:48:13.334Z,17.17
2023-06-07T23:53:16.253Z,17.07
2023-06-07T23:58:19.420Z,16.93
